Time;durP1;ratioP1;P1;durP2;ratioP2;P2;SDS_P1;SDS_P2;PMS_P1;PMS_P2;Temp;Humidity;BMP_temperature;BMP_pressure;BME280_temperature;BME280_humidity;BME280_pressure;Samples;Min_cycle;Max_cycle;Signal;HPM_P1;HPM_P2
2023/03/17 00:08:35;;;;;;;0.70;0.60;;;;;;;5.96;39.05;99836.91;20932534;28;20277;-84
2023/03/17 00:18:37;;;;;;;2.03;0.53;;;;;;;6.41;37.35;99836.75;20947837;28;20225;-86
2023/03/17 00:28:39;;;;;;;0.67;0.50;;;;;;;6.00;37.89;99840.75;20926706;28;20625;-85
2023/03/17 00:38:41;;;;;;;1.20;0.67;;;;;;;6.26;37.29;99859.63;20905588;28;20223;-84
2023/03/17 00:48:44;;;;;;;1.03;0.50;;;;;;;6.59;36.14;99855.25;20840239;28;20255;-84
2023/03/17 00:58:47;;;;;;;0.70;0.63;;;;;;;6.61;36.41;99850.16;20890482;28;20209;-85
2023/03/17 01:08:51;;;;;;;2.53;0.67;;;;;;;8.09;33.90;99883.41;20889327;28;20289;-84
2023/03/17 01:18:53;;;;;;;1.27;0.80;;;;;;;7.34;35.27;99870.00;20868561;28;20191;-86
2023/03/17 01:28:57;;;;;;;1.27;0.52;;;;;;;7.74;34.08;99865.00;20900153;28;20208;-84
2023/03/17 01:39:00;;;;;;;0.90;0.50;;;;;;;6.66;36.24;99863.22;20889388;28;20196;-84
2023/03/17 01:49:24;;;;;;;1.80;0.80;;;;;;;6.94;35.81;99852.50;20872036;28;20548;-85
2023/03/17 01:59:32;;;;;;;0.90;0.60;;;;;;;6.43;36.71;99825.22;20877229;28;20192;-84
2023/03/17 02:09:35;;;;;;;3.83;0.90;;;;;;;6.16;37.43;99809.47;20855224;28;20281;-85
2023/03/17 02:19:37;;;;;;;1.73;0.90;;;;;;;5.98;38.19;99787.00;20853071;28;20255;-86
2023/03/17 02:29:40;;;;;;;1.90;0.87;;;;;;;6.13;37.37;99770.88;20842667;28;20621;-85
2023/03/17 02:39:43;;;;;;;2.17;0.80;;;;;;;6.69;35.97;99765.22;20895324;28;20242;-84
2023/03/17 02:49:45;;;;;;;1.00;0.53;;;;;;;7.56;34.56;99770.66;20893878;28;20223;-87
2023/03/17 02:59:48;;;;;;;2.43;0.90;;;;;;;7.40;34.79;99785.25;20901968;28;20211;-86
2023/03/17 03:09:50;;;;;;;0.70;0.60;;;;;;;6.86;35.71;99766.34;20907363;28;20698;-87
2023/03/17 03:19:52;;;;;;;1.77;0.50;;;;;;;7.25;34.92;99785.78;20910495;28;20787;-87
2023/03/17 03:29:54;;;;;;;1.27;0.70;;;;;;;6.48;36.65;99788.59;20889605;28;20220;-87
2023/03/17 03:39:56;;;;;;;0.97;0.90;;;;;;;6.24;37.53;99777.81;20885233;28;20204;-85
2023/03/17 03:49:59;;;;;;;0.73;0.60;;;;;;;6.29;36.90;99769.28;20893612;28;20258;-84
2023/03/17 04:00:03;;;;;;;1.43;0.60;;;;;;;6.12;37.43;99758.84;20854420;28;20191;-88
2023/03/17 04:10:14;;;;;;;1.20;0.60;;;;;;;6.00;37.41;99744.66;20894801;28;20581;-86
2023/03/17 04:20:17;;;;;;;2.90;0.70;;;;;;;6.43;36.59;99753.13;20892291;28;20196;-87
2023/03/17 04:30:20;;;;;;;1.13;0.80;;;;;;;7.16;34.71;99739.22;20922637;28;20222;-86
2023/03/17 04:40:22;;;;;;;2.10;0.90;;;;;;;6.84;34.95;99754.66;20906340;28;20245;-85
2023/03/17 04:50:25;;;;;;;0.90;0.60;;;;;;;7.18;34.06;99743.34;20886677;28;20281;-86
2023/03/17 05:00:27;;;;;;;2.83;0.73;;;;;;;6.94;34.22;99755.13;20886916;28;20192;-87
2023/03/17 05:10:30;;;;;;;1.57;0.60;;;;;;;6.99;34.41;99748.50;20812938;28;20278;-84
2023/03/17 05:20:33;;;;;;;1.07;0.80;;;;;;;6.77;34.78;99762.72;20827268;28;20200;-86
2023/03/17 05:30:35;;;;;;;0.90;0.60;;;;;;;6.90;34.66;99753.31;20850833;28;20220;-84
2023/03/17 05:40:38;;;;;;;2.50;1.17;;;;;;;6.91;34.77;99752.16;20818246;28;20184;-86
2023/03/17 05:50:41;;;;;;;1.03;0.80;;;;;;;6.47;35.68;99745.69;20802834;28;20223;-88
2023/03/17 06:00:45;;;;;;;4.80;0.87;;;;;;;6.72;35.31;99758.09;20819578;28;20191;-88
2023/03/17 06:10:47;;;;;;;2.10;0.73;;;;;;;6.93;35.41;99766.69;20796091;28;20305;-84
2023/03/17 06:20:49;;;;;;;1.53;0.87;;;;;;;6.57;36.22;99751.03;20794366;28;20544;-87
2023/03/17 06:30:51;;;;;;;2.10;0.60;;;;;;;6.23;36.91;99740.56;20835198;28;20235;-88
2023/03/17 06:40:56;;;;;;;1.70;0.80;;;;;;;6.45;36.11;99745.19;20815755;28;20266;-86
2023/03/17 06:50:59;;;;;;;1.67;0.90;;;;;;;6.96;36.20;99738.78;20836903;28;20220;-86
2023/03/17 07:01:03;;;;;;;1.90;0.70;;;;;;;6.90;36.27;99756.13;20827806;28;20226;-86
2023/03/17 07:11:05;;;;;;;3.10;0.93;;;;;;;7.25;36.04;99740.84;20826652;28;20266;-84
2023/03/17 07:21:08;;;;;;;3.73;3.27;;;;;;;7.34;35.65;99736.06;20828343;28;20247;-85
2023/03/17 07:31:13;;;;;;;2.38;1.15;;;;;;;7.56;35.25;99742.56;20808976;28;20217;-85
2023/03/17 07:41:16;;;;;;;1.53;0.93;;;;;;;8.12;34.44;99741.34;20827398;28;20220;-85
2023/03/17 07:51:21;;;;;;;1.75;1.17;;;;;;;8.35;34.64;99753.09;20806284;28;20703;-85
2023/03/17 08:01:27;;;;;;;2.83;0.87;;;;;;;8.74;34.04;99730.13;20826744;28;20192;-84
2023/03/17 08:11:29;;;;;;;1.33;1.23;;;;;;;9.17;33.48;99721.25;20860880;28;20218;-84
2023/03/17 08:21:32;;;;;;;4.78;0.93;;;;;;;9.08;33.95;99728.13;20867950;28;20478;-88
2023/03/17 08:31:39;;;;;;;1.98;0.90;;;;;;;9.57;32.94;99726.25;20879248;28;20636;-85
2023/03/17 08:41:42;;;;;;;1.37;0.80;;;;;;;9.69;32.93;99745.22;20891404;28;20504;-85
2023/03/17 08:51:45;;;;;;;4.13;1.10;;;;;;;10.26;32.16;99745.06;20882519;28;20586;-87
2023/03/17 09:01:47;;;;;;;1.75;0.90;;;;;;;9.97;32.95;99736.88;20875817;28;20261;-85
2023/03/17 09:11:50;;;;;;;1.60;0.70;;;;;;;10.03;33.02;99741.94;20863694;28;20270;-86
2023/03/17 09:21:52;;;;;;;2.53;0.85;;;;;;;10.27;33.10;99753.19;20865080;28;20245;-85
2023/03/17 09:31:55;;;;;;;1.83;1.03;;;;;;;9.87;33.62;99733.34;20879155;28;20215;-86
2023/03/17 09:42:27;;;;;;;3.10;0.95;;;;;;;10.03;33.33;99735.47;20885350;28;20227;-84
2023/03/17 09:52:31;;;;;;;2.08;1.13;;;;;;;11.27;31.66;99756.19;20889849;28;20219;-83
2023/03/17 10:02:39;;;;;;;3.17;1.00;;;;;;;11.10;31.98;99745.22;20876400;28;20227;-83
2023/03/17 10:13:03;;;;;;;2.55;1.15;;;;;;;10.81;32.73;99733.09;20884986;28;20525;-83
2023/03/17 10:23:06;;;;;;;2.38;1.00;;;;;;;10.83;32.81;99730.75;20915919;28;20191;-83
2023/03/17 10:33:09;;;;;;;3.10;1.05;;;;;;;11.65;31.69;99728.16;20837146;28;20568;-84
2023/03/17 10:43:16;;;;;;;2.15;1.05;;;;;;;11.80;31.53;99708.75;20846879;28;20666;-83
2023/03/17 10:53:26;;;;;;;2.47;0.80;;;;;;;11.98;31.05;99710.00;20884326;28;20261;-86
2023/03/17 11:03:34;;;;;;;2.28;1.17;;;;;;;12.96;30.68;99712.63;20911915;28;20606;-85
2023/03/17 11:13:37;;;;;;;2.70;0.98;;;;;;;13.53;29.49;99691.06;20876542;28;20273;-89
2023/03/17 11:23:45;;;;;;;3.22;0.80;;;;;;;14.00;28.46;99670.78;20836304;28;20196;-87
2023/03/17 11:34:01;;;;;;;2.00;1.17;;;;;;;13.29;29.56;99680.91;20901915;28;20209;-84
2023/03/17 11:44:32;;;;;;;2.97;0.98;;;;;;;13.67;28.98;99668.63;20863900;28;20192;-84
2023/03/17 11:55:03;;;;;;;2.00;1.05;;;;;;;13.89;29.60;99662.13;20839385;28;20242;-86
2023/03/17 12:05:08;;;;;;;1.23;0.60;;;;;;;13.38;29.75;99661.63;20816781;28;1187301;-88
2023/03/17 12:15:21;;;;;;;1.50;0.70;;;;;;;14.17;28.79;99654.03;20880319;28;20200;-89
2023/03/17 12:25:31;;;;;;;1.50;1.10;;;;;;;13.71;29.31;99653.31;20893672;28;20223;-84
2023/03/17 12:35:37;;;;;;;1.63;0.70;;;;;;;13.70;29.78;99645.19;20903053;28;20253;-88
2023/03/17 12:46:27;;;;;;;2.17;0.77;;;;;;;13.77;29.37;99634.78;20888421;28;20215;-87
2023/03/17 12:56:33;;;;;;;2.10;0.82;;;;;;;13.75;29.39;99608.78;20813006;28;20222;-88
2023/03/17 13:06:52;;;;;;;2.45;1.00;;;;;;;14.42;29.02;99608.94;20880220;28;20235;-88
2023/03/17 13:17:03;;;;;;;3.42;1.13;;;;;;;13.78;30.00;99610.06;20892920;28;20208;-86
2023/03/17 13:27:10;;;;;;;2.85;0.88;;;;;;;13.88;29.53;99600.06;20903287;28;20244;-87
2023/03/17 13:37:26;;;;;;;6.03;0.90;;;;;;;14.30;28.99;99577.97;20891749;28;20246;-87
2023/03/17 13:47:41;;;;;;;5.20;1.08;;;;;;;14.81;29.10;99572.50;20869138;28;20220;-87
2023/03/17 13:57:56;;;;;;;1.92;0.90;;;;;;;14.17;29.43;99596.44;20867561;28;20580;-88
2023/03/17 14:08:01;;;;;;;1.85;0.77;;;;;;;14.39;29.75;99578.47;20881750;28;20424;-86
2023/03/17 14:18:29;;;;;;;5.20;1.23;;;;;;;14.13;29.89;99562.31;20889548;28;20208;-85
2023/03/17 14:28:33;;;;;;;3.08;1.10;;;;;;;15.47;29.23;99558.50;20887126;28;20254;-83
2023/03/17 14:38:36;;;;;;;2.22;0.90;;;;;;;14.86;29.43;99571.34;20862860;28;20253;-85
2023/03/17 14:48:40;;;;;;;2.78;0.80;;;;;;;14.82;29.09;99570.47;20901196;28;20242;-86
2023/03/17 14:58:44;;;;;;;1.52;0.77;;;;;;;15.03;29.05;99553.63;20894095;28;20191;-85
2023/03/17 15:08:47;;;;;;;1.90;0.88;;;;;;;15.11;28.81;99551.69;20879477;28;20297;-86
2023/03/17 15:18:56;;;;;;;3.38;0.93;;;;;;;14.63;29.71;99551.59;20887984;28;20466;-86
2023/03/17 15:28:59;;;;;;;1.83;0.60;;;;;;;14.20;30.37;99555.94;20878340;28;20224;-84
2023/03/17 15:39:02;;;;;;;4.72;1.98;;;;;;;13.39;31.72;99570.53;20905880;28;20191;-86
2023/03/17 15:49:09;;;;;;;2.13;1.00;;;;;;;13.25;31.93;99566.66;20886766;28;20520;-86
2023/03/17 15:59:11;;;;;;;2.00;0.60;;;;;;;12.46;33.13;99574.84;20870799;28;20289;-86
2023/03/17 16:09:15;;;;;;;5.20;2.25;;;;;;;13.25;32.56;99549.63;20889724;28;20251;-75
2023/03/17 16:19:19;;;;;;;3.30;1.30;;;;;;;13.05;32.47;99578.06;20858851;28;20218;-88
2023/03/17 16:29:21;;;;;;;1.85;0.80;;;;;;;13.16;31.95;99592.41;20876731;28;20220;-88
2023/03/17 16:39:25;;;;;;;1.30;0.70;;;;;;;13.46;32.14;99589.66;20848169;28;20204;-87
2023/03/17 16:49:27;;;;;;;4.55;1.27;;;;;;;12.48;33.71;99583.81;20848791;28;20288;-88
2023/03/17 16:59:30;;;;;;;2.83;0.70;;;;;;;12.37;33.13;99549.63;20842575;28;20464;-86
2023/03/17 17:09:32;;;;;;;5.07;2.33;;;;;;;12.41;32.73;99597.81;20777997;28;20228;-88
2023/03/17 17:19:35;;;;;;;1.50;0.90;;;;;;;12.52;32.18;99596.84;20770774;28;20602;-89
2023/03/17 17:29:37;;;;;;;1.58;0.90;;;;;;;12.52;32.19;99596.84;20793072;28;20223;-89
2023/03/17 17:39:39;;;;;;;2.58;1.25;;;;;;;13.20;31.42;99623.66;20803251;28;20188;-88
2023/03/17 17:49:42;;;;;;;2.55;1.10;;;;;;;12.13;32.76;99621.47;20776793;28;20212;-88
2023/03/17 17:59:44;;;;;;;2.20;1.02;;;;;;;12.47;33.18;99616.13;20789592;28;20197;-88
2023/03/17 18:09:47;;;;;;;4.07;1.20;;;;;;;11.71;34.99;99660.88;20773490;28;20335;-88
2023/03/17 18:19:52;;;;;;;3.13;1.13;;;;;;;11.50;35.12;99652.69;20803046;28;20258;-87
2023/03/17 18:29:54;;;;;;;7.78;1.23;;;;;;;11.27;35.82;99643.97;20834162;28;20609;-89
2023/03/17 18:39:58;;;;;;;2.35;1.08;;;;;;;11.45;35.33;99624.69;20793178;28;20484;-89
2023/03/17 18:50:16;;;;;;;5.18;2.30;;;;;;;11.79;34.86;99664.69;20803954;28;20277;-90
2023/03/17 19:00:18;;;;;;;5.80;1.63;;;;;;;12.01;34.06;99658.38;20825420;28;20200;-90
2023/03/17 19:10:21;;;;;;;4.00;1.85;;;;;;;11.13;35.46;99617.34;20794059;28;20251;-89
2023/03/17 19:20:24;;;;;;;2.15;0.93;;;;;;;11.55;34.25;99677.84;20827974;28;20218;-88
2023/03/17 19:30:26;;;;;;;5.18;1.10;;;;;;;11.32;35.34;99682.44;20844162;28;20224;-87
2023/03/17 19:40:29;;;;;;;4.43;1.90;;;;;;;11.42;35.24;99672.63;20833654;28;20197;-88
2023/03/17 19:50:32;;;;;;;2.85;1.17;;;;;;;11.54;34.48;99662.06;20811268;28;20258;-86
2023/03/17 20:00:35;;;;;;;2.63;1.30;;;;;;;11.17;34.49;99652.19;20827342;28;20209;-85
2023/03/17 20:10:38;;;;;;;4.03;1.30;;;;;;;11.11;34.98;99662.13;20827191;28;20281;-86
2023/03/17 20:20:46;;;;;;;3.45;1.60;;;;;;;11.23;35.65;99681.81;20827859;28;20192;-85
2023/03/17 20:30:49;;;;;;;4.07;1.42;;;;;;;11.32;37.32;99690.94;20786762;28;20264;-87
2023/03/17 20:40:52;;;;;;;2.05;1.20;;;;;;;10.71;37.53;99684.78;20816606;28;20250;-85
2023/03/17 20:50:54;;;;;;;7.00;1.10;;;;;;;10.92;37.06;99693.88;20825670;28;20619;-86
2023/03/17 21:00:57;;;;;;;6.72;2.78;;;;;;;10.74;37.20;99704.63;20813824;28;20193;-83
2023/03/17 21:11:00;;;;;;;6.50;1.10;;;;;;;10.68;40.07;99706.09;20913453;28;20227;-86
2023/03/17 21:21:02;;;;;;;4.17;1.53;;;;;;;10.35;41.06;99706.25;20870286;28;20644;-84
2023/03/17 21:31:05;;;;;;;2.63;0.85;;;;;;;11.04;39.96;99715.56;20900265;28;20222;-86
2023/03/17 21:41:32;;;;;;;5.43;1.60;;;;;;;10.71;41.77;99722.31;20914792;28;20715;-86
2023/03/17 21:51:34;;;;;;;3.13;1.70;;;;;;;10.70;43.73;99719.84;20922993;28;20285;-85
2023/03/17 22:01:37;;;;;;;6.70;2.43;;;;;;;11.47;42.61;99711.94;20926996;28;20223;-86
2023/03/17 22:11:40;;;;;;;4.63;1.20;;;;;;;10.69;44.96;99719.03;20878103;28;20224;-88
2023/03/17 22:21:42;;;;;;;2.43;1.30;;;;;;;10.13;47.12;99712.41;20920152;28;20204;-86
2023/03/17 22:31:45;;;;;;;3.83;1.13;;;;;;;10.83;46.06;99719.44;20889785;28;20373;-83
2023/03/17 22:41:48;;;;;;;3.58;1.30;;;;;;;10.03;47.63;99735.47;20871879;28;20494;-85
2023/03/17 22:51:50;;;;;;;4.47;1.27;;;;;;;9.72;48.95;99747.31;20919866;28;20226;-86
2023/03/17 23:01:52;;;;;;;4.68;1.65;;;;;;;9.59;50.88;99771.00;20911277;28;20211;-86
2023/03/17 23:11:55;;;;;;;3.80;1.67;;;;;;;9.94;49.69;99760.97;20938707;28;20223;-86
2023/03/17 23:21:57;;;;;;;5.63;2.83;;;;;;;9.63;51.54;99772.78;20914448;28;20222;-86
2023/03/17 23:32:00;;;;;;;4.70;1.63;;;;;;;9.64;51.39;99771.63;20913950;28;20296;-85
2023/03/17 23:42:02;;;;;;;3.95;1.20;;;;;;;9.36;52.48;99767.78;20940913;28;20245;-83
2023/03/17 23:52:05;;;;;;;2.47;1.53;;;;;;;9.71;51.83;99773.84;20917273;28;20260;-84
